KR-0423 weather

Sejong Grandia Apartments Heliports
Busan (Munhyeon-dong), Busan Gwang'yeogsi, South Korea

Public forecast

Using degrees Celsius for public forecast. Weather courtesy of forecast.io.

METAR (pilot weather report)

Closest report is Gimhae International Airport, 6.9 nm (12.8 km) WNW. Retrieved 2019/09/18 01:00 UTC (59 minutes ago):

RKPK 180100Z 33006KT CAVOK 23/15 Q1015

TAF (pilot weather forecast)

Forecast is more than 12 hours old.

Closest forecast is Gimhae International Airport, 6.9 nm (12.8 km) WNW. Retrieved 2019/09/17 00:00 UTC (1 day ago):

TAF RKPK 172300Z 1800/1906 36006KT 9999 FEW030 SCT180 TX28/1806Z TN17/1820Z BECMG 1805/1806 18012KT BECMG 1809/1810 36006KT